createdAt,value
2018-03-30T00:00:09.081Z,22.43
2018-03-30T00:02:36.675Z,22.17
2018-03-30T00:05:04.337Z,23.57
2018-03-30T00:07:31.931Z,24.67
2018-03-30T00:09:59.534Z,21.03
2018-03-30T00:12:27.171Z,19.73
2018-03-30T00:14:54.758Z,20.83
2018-03-30T00:17:22.340Z,19.90
2018-03-30T00:19:49.995Z,21.30
2018-03-30T00:22:17.654Z,20.27
2018-03-30T00:24:45.299Z,20.67
2018-03-30T00:27:12.897Z,21.00
2018-03-30T00:29:40.490Z,21.37
2018-03-30T00:32:08.080Z,21.87
2018-03-30T00:34:35.666Z,20.53
2018-03-30T00:37:03.295Z,20.67
2018-03-30T00:39:30.883Z,20.50
2018-03-30T00:41:58.468Z,22.30
2018-03-30T00:44:26.060Z,22.10
2018-03-30T00:46:53.731Z,21.23
2018-03-30T00:49:21.330Z,21.93
2018-03-30T00:51:48.931Z,22.03
2018-03-30T00:54:16.552Z,22.40
2018-03-30T00:56:44.135Z,22.47
2018-03-30T00:59:11.728Z,22.43
2018-03-30T01:01:39.408Z,22.07
2018-03-30T01:04:07.024Z,22.30
2018-03-30T01:06:34.739Z,21.43
2018-03-30T01:09:02.327Z,22.63
2018-03-30T01:11:29.915Z,22.10
2018-03-30T01:13:57.514Z,22.00
2018-03-30T01:16:25.097Z,22.23
2018-03-30T01:18:52.698Z,22.43
2018-03-30T01:21:20.296Z,22.20
2018-03-30T01:23:47.914Z,23.13
2018-03-30T01:26:15.591Z,23.17
2018-03-30T01:28:43.232Z,23.90
2018-03-30T01:31:10.899Z,22.80
2018-03-30T01:33:38.479Z,24.37
2018-03-30T01:36:06.111Z,28.83
2018-03-30T01:38:33.696Z,25.70
2018-03-30T01:41:01.301Z,24.90
2018-03-30T01:43:28.939Z,27.00
2018-03-30T01:45:56.551Z,27.73
2018-03-30T01:48:24.126Z,26.60
2018-03-30T01:50:51.720Z,27.83
2018-03-30T01:53:19.352Z,28.87
2018-03-30T01:55:47.028Z,29.13
2018-03-30T01:58:14.668Z,28.93
2018-03-30T02:00:42.267Z,28.30
2018-03-30T02:03:09.854Z,27.57
2018-03-30T02:05:37.490Z,29.90
2018-03-30T02:08:05.114Z,30.03
2018-03-30T02:10:32.714Z,30.37
2018-03-30T02:13:00.306Z,31.80
2018-03-30T02:15:27.934Z,30.50
2018-03-30T02:17:55.520Z,29.63
2018-03-30T02:20:23.106Z,30.17
2018-03-30T02:22:50.726Z,32.40
2018-03-30T02:25:18.344Z,31.17
2018-03-30T02:27:45.954Z,32.03
2018-03-30T02:30:13.585Z,33.23
2018-03-30T02:32:41.233Z,31.03
2018-03-30T02:35:08.857Z,29.60
2018-03-30T02:37:36.459Z,30.57
2018-03-30T02:40:04.096Z,34.33
2018-03-30T02:42:31.726Z,35.83
2018-03-30T02:44:59.330Z,36.33
2018-03-30T02:47:26.923Z,37.53
2018-03-30T02:49:54.555Z,33.13
2018-03-30T02:52:22.192Z,33.50
2018-03-30T02:54:49.832Z,33.07
2018-03-30T02:57:17.464Z,33.17
2018-03-30T02:59:45.099Z,33.23
2018-03-30T03:02:12.713Z,34.00
2018-03-30T03:04:40.303Z,33.20
2018-03-30T03:07:07.886Z,32.10
2018-03-30T03:09:35.511Z,30.60
2018-03-30T03:12:03.131Z,30.67
2018-03-30T03:14:30.731Z,31.43
2018-03-30T03:16:58.331Z,30.17
2018-03-30T03:19:25.923Z,30.87
2018-03-30T03:21:53.510Z,31.47
2018-03-30T03:24:21.115Z,31.37
2018-03-30T03:26:48.725Z,31.70
2018-03-30T03:29:16.319Z,35.63
2018-03-30T03:31:44.006Z,41.87
2018-03-30T03:34:11.607Z,36.40
2018-03-30T03:36:39.201Z,36.00
2018-03-30T03:39:06.787Z,35.27
2018-03-30T03:41:34.380Z,35.17
2018-03-30T03:44:02.054Z,34.90
2018-03-30T03:46:29.699Z,32.67
2018-03-30T03:48:57.323Z,30.07
2018-03-30T03:51:24.962Z,30.43
2018-03-30T03:53:52.548Z,31.37
2018-03-30T03:56:20.135Z,31.27
2018-03-30T03:58:47.726Z,31.40
2018-03-30T04:01:15.360Z,30.40
2018-03-30T04:03:42.963Z,32.93
2018-03-30T04:06:10.552Z,32.57
2018-03-30T04:08:38.175Z,35.03
2018-03-30T04:11:05.803Z,32.70
2018-03-30T04:13:33.395Z,33.43
2018-03-30T04:16:01.079Z,32.73
2018-03-30T04:18:28.666Z,30.33
2018-03-30T04:20:56.263Z,32.43
2018-03-30T04:23:23.858Z,30.07
2018-03-30T04:25:51.547Z,29.23
2018-03-30T04:28:19.166Z,26.53
2018-03-30T04:30:46.754Z,25.40
2018-03-30T04:33:14.465Z,26.40
2018-03-30T04:35:42.065Z,26.20
2018-03-30T04:38:09.666Z,23.23
2018-03-30T04:40:37.302Z,21.23
2018-03-30T04:43:04.921Z,21.83
2018-03-30T04:45:32.602Z,23.37
2018-03-30T04:48:00.187Z,22.83
2018-03-30T04:50:27.800Z,24.47
2018-03-30T04:52:55.402Z,21.73
2018-03-30T04:55:23.023Z,22.87
2018-03-30T04:57:50.624Z,21.00
2018-03-30T05:00:18.222Z,21.23
2018-03-30T05:02:45.850Z,23.20
2018-03-30T05:05:13.436Z,21.50
2018-03-30T05:07:41.067Z,22.00
2018-03-30T05:10:08.675Z,23.47
2018-03-30T05:12:36.303Z,23.23
2018-03-30T05:15:04.075Z,22.10
2018-03-30T05:17:31.679Z,22.47
2018-03-30T05:19:59.372Z,24.53
2018-03-30T05:22:27.003Z,25.07
2018-03-30T05:24:54.622Z,22.10
2018-03-30T05:27:22.253Z,24.13
2018-03-30T05:29:49.870Z,24.13
2018-03-30T05:32:17.499Z,24.77
2018-03-30T05:34:45.262Z,23.00
2018-03-30T05:37:12.988Z,23.57
2018-03-30T05:39:40.709Z,24.70
2018-03-30T05:42:08.339Z,24.73
2018-03-30T05:44:35.969Z,22.73
2018-03-30T05:47:03.585Z,23.87
2018-03-30T05:49:31.186Z,23.37
2018-03-30T05:51:58.831Z,24.80
2018-03-30T05:54:26.469Z,24.30
2018-03-30T05:56:54.063Z,24.37
2018-03-30T05:59:21.695Z,22.37
2018-03-30T06:01:49.287Z,22.37
2018-03-30T06:04:16.918Z,21.37
2018-03-30T06:06:44.679Z,19.10
2018-03-30T06:09:12.374Z,21.23
2018-03-30T06:11:40.000Z,20.37
2018-03-30T06:14:07.640Z,23.00
2018-03-30T06:16:35.230Z,23.80
2018-03-30T06:19:02.846Z,25.03
2018-03-30T06:21:30.546Z,25.67
2018-03-30T06:23:58.188Z,23.80
2018-03-30T06:26:25.796Z,23.03
2018-03-30T06:28:53.403Z,24.43
2018-03-30T06:31:21.048Z,23.17
2018-03-30T06:33:48.642Z,20.70
2018-03-30T06:36:16.238Z,20.17
2018-03-30T06:38:43.855Z,21.13
2018-03-30T06:41:12.039Z,19.17
2018-03-30T06:43:39.640Z,19.40
2018-03-30T06:46:07.240Z,19.03
2018-03-30T06:48:34.853Z,19.83
2018-03-30T06:51:02.468Z,19.90
2018-03-30T06:53:30.122Z,19.33
2018-03-30T06:55:57.722Z,20.27
2018-03-30T06:58:25.335Z,19.33
2018-03-30T07:00:52.970Z,20.60
2018-03-30T07:03:20.603Z,22.10
2018-03-30T07:05:48.198Z,21.73
2018-03-30T07:08:15.812Z,23.60
2018-03-30T07:10:43.458Z,23.53
2018-03-30T07:13:11.128Z,21.90
2018-03-30T07:15:38.767Z,22.77
2018-03-30T07:18:06.377Z,23.23
2018-03-30T07:20:33.992Z,21.70
2018-03-30T07:23:01.627Z,22.73
2018-03-30T07:25:29.283Z,21.83
2018-03-30T07:27:56.890Z,20.50
2018-03-30T07:30:24.484Z,20.60
2018-03-30T07:32:52.199Z,24.40
2018-03-30T07:35:19.821Z,23.73
2018-03-30T07:37:47.415Z,21.07
2018-03-30T07:40:15.022Z,21.67
2018-03-30T07:42:42.655Z,21.37
2018-03-30T07:45:10.257Z,21.23
2018-03-30T07:47:37.941Z,21.90
2018-03-30T07:50:05.567Z,19.57
2018-03-30T07:52:33.196Z,20.80
2018-03-30T07:55:00.791Z,19.90
2018-03-30T07:57:28.396Z,20.27
2018-03-30T07:59:56.031Z,20.93
2018-03-30T08:02:23.619Z,21.30
2018-03-30T08:04:51.223Z,21.40
2018-03-30T08:07:18.859Z,21.00
2018-03-30T08:09:46.502Z,21.67
2018-03-30T08:12:14.216Z,21.40
2018-03-30T08:14:41.839Z,23.30
2018-03-30T08:17:09.437Z,21.57
2018-03-30T08:19:37.040Z,21.37
2018-03-30T08:22:04.734Z,21.37
2018-03-30T08:24:32.339Z,20.87
2018-03-30T08:26:59.931Z,20.27
2018-03-30T08:29:27.563Z,20.30
2018-03-30T08:31:55.158Z,21.47
2018-03-30T08:34:22.772Z,20.40
2018-03-30T08:36:50.382Z,19.03
2018-03-30T08:39:17.971Z,18.63
2018-03-30T08:41:45.583Z,18.27
2018-03-30T08:44:13.179Z,18.97
2018-03-30T08:46:40.852Z,19.23
2018-03-30T08:49:08.452Z,18.60
2018-03-30T08:51:36.067Z,20.63
2018-03-30T08:54:03.671Z,21.03
2018-03-30T08:56:31.330Z,21.40
2018-03-30T08:58:58.930Z,20.53
2018-03-30T09:01:26.548Z,22.77
2018-03-30T09:03:54.171Z,21.53
2018-03-30T09:06:21.775Z,22.07
2018-03-30T09:08:49.419Z,20.80
2018-03-30T09:11:17.009Z,21.00
2018-03-30T09:13:44.623Z,19.40
2018-03-30T09:16:12.223Z,20.47
2018-03-30T09:18:39.828Z,19.03
2018-03-30T09:21:07.436Z,19.37
2018-03-30T09:23:35.031Z,19.57
2018-03-30T09:26:02.738Z,18.00
2018-03-30T09:28:30.435Z,19.27
2018-03-30T09:30:58.055Z,20.83
2018-03-30T09:33:28.328Z,21.00
2018-03-30T09:35:55.924Z,29.67
2018-03-30T09:38:23.529Z,18.93
2018-03-30T09:40:51.139Z,19.80
2018-03-30T09:43:18.776Z,19.43
2018-03-30T09:45:46.375Z,21.83
2018-03-30T09:48:13.964Z,20.30
2018-03-30T09:50:41.570Z,21.87
2018-03-30T09:53:09.170Z,20.10
2018-03-30T09:55:36.852Z,22.27
2018-03-30T09:58:04.456Z,22.93
2018-03-30T10:00:32.047Z,22.37
2018-03-30T10:03:04.569Z,21.57
2018-03-30T10:05:32.177Z,22.30
2018-03-30T10:07:59.775Z,21.53
2018-03-30T10:10:27.402Z,23.37
2018-03-30T10:12:55.011Z,26.27
2018-03-30T10:15:22.610Z,27.33
2018-03-30T10:17:50.240Z,24.87
2018-03-30T10:20:17.850Z,25.80
2018-03-30T10:22:45.451Z,25.20
2018-03-30T10:25:13.097Z,24.97
2018-03-30T10:27:40.745Z,24.40
2018-03-30T10:30:08.339Z,23.67
2018-03-30T10:32:35.947Z,22.77
2018-03-30T10:35:03.536Z,22.93
2018-03-30T10:37:31.135Z,23.00
2018-03-30T10:39:58.758Z,19.67
2018-03-30T10:42:26.355Z,20.30
2018-03-30T10:44:54.018Z,20.37
2018-03-30T10:47:21.671Z,22.33
2018-03-30T10:49:49.259Z,21.73
2018-03-30T10:52:16.898Z,21.03
2018-03-30T10:54:44.540Z,21.53
2018-03-30T10:57:12.142Z,20.90
2018-03-30T10:59:39.752Z,21.57
2018-03-30T11:02:07.350Z,21.67
2018-03-30T11:04:34.973Z,19.93
2018-03-30T11:07:02.604Z,19.50
2018-03-30T11:09:30.195Z,18.77
2018-03-30T11:11:57.838Z,18.10
2018-03-30T11:14:25.543Z,17.47
2018-03-30T11:16:53.143Z,18.37
2018-03-30T11:19:20.779Z,18.23
2018-03-30T11:21:48.370Z,18.17
2018-03-30T11:24:15.967Z,18.60
2018-03-30T11:26:43.583Z,20.60
2018-03-30T11:29:11.213Z,20.93
2018-03-30T11:31:38.828Z,18.47
2018-03-30T11:34:06.411Z,18.97
2018-03-30T11:36:34.083Z,18.83
2018-03-30T11:39:01.674Z,17.77
2018-03-30T11:41:29.306Z,16.23
2018-03-30T11:43:57.038Z,16.07
2018-03-30T11:46:24.728Z,16.70
2018-03-30T11:48:52.332Z,17.17
2018-03-30T11:51:19.927Z,17.43
2018-03-30T11:53:47.555Z,16.63
2018-03-30T11:56:15.171Z,15.63
2018-03-30T11:58:43.667Z,16.43
2018-03-30T12:01:10.557Z,16.87
2018-03-30T12:03:38.199Z,15.27
2018-03-30T12:06:05.790Z,17.00
2018-03-30T12:08:33.392Z,16.20
2018-03-30T12:11:00.991Z,17.90
2018-03-30T12:13:28.580Z,16.97
2018-03-30T12:15:56.182Z,16.80
2018-03-30T12:18:23.796Z,17.97
2018-03-30T12:20:51.391Z,17.23
2018-03-30T12:23:19.026Z,16.80
2018-03-30T12:25:46.687Z,17.50
2018-03-30T12:28:14.275Z,16.13
2018-03-30T12:30:41.889Z,15.97
2018-03-30T12:33:09.516Z,15.03
2018-03-30T12:35:37.170Z,14.13
2018-03-30T12:38:04.794Z,13.07
2018-03-30T12:40:32.415Z,13.37
2018-03-30T12:43:00.004Z,12.43
2018-03-30T12:45:27.598Z,12.50
2018-03-30T12:47:55.283Z,12.43
2018-03-30T12:50:22.896Z,13.10
2018-03-30T12:52:50.489Z,13.27
2018-03-30T12:55:18.987Z,13.97
2018-03-30T12:57:46.587Z,15.17
2018-03-30T13:00:14.179Z,15.00
2018-03-30T13:02:41.831Z,16.17
2018-03-30T13:05:09.470Z,16.00
2018-03-30T13:07:37.064Z,15.30
2018-03-30T13:10:04.690Z,17.70
2018-03-30T13:12:32.278Z,18.43
2018-03-30T13:14:59.863Z,17.53
2018-03-30T13:17:27.478Z,14.33
2018-03-30T13:19:55.062Z,14.40
2018-03-30T13:22:22.654Z,13.77
2018-03-30T13:24:50.267Z,10.80
2018-03-30T13:27:17.894Z,10.50
2018-03-30T13:29:45.499Z,11.37
2018-03-30T13:32:13.111Z,10.77
2018-03-30T13:34:40.807Z,10.00
2018-03-30T13:37:08.434Z,10.07
2018-03-30T13:39:36.027Z,10.33
2018-03-30T13:42:03.639Z,10.37
2018-03-30T13:44:31.232Z,11.73
2018-03-30T13:46:58.859Z,11.40
2018-03-30T13:49:26.476Z,12.60
2018-03-30T13:51:57.956Z,13.50
2018-03-30T13:54:27.246Z,13.53
2018-03-30T13:57:00.436Z,11.63
2018-03-30T13:59:28.875Z,13.27
2018-03-30T14:02:01.109Z,12.63
2018-03-30T14:04:44.502Z,12.13
2018-03-30T14:07:13.872Z,26.73
2018-03-30T14:09:42.223Z,13.63
2018-03-30T14:12:12.471Z,12.57
2018-03-30T14:14:40.070Z,11.83
2018-03-30T14:17:21.323Z,11.57
2018-03-30T14:19:50.461Z,11.77
2018-03-30T14:25:20.423Z,9.87
2018-03-30T14:27:59.585Z,10.70
2018-03-30T14:30:27.174Z,9.57
2018-03-30T14:33:07.403Z,9.07
2018-03-30T14:38:34.726Z,8.10
2018-03-30T14:41:02.347Z,8.93
2018-03-30T14:43:33.582Z,9.50
2018-03-30T14:48:59.375Z,9.80
2018-03-30T14:51:33.750Z,8.83
2018-03-30T14:54:07.026Z,8.03
2018-03-30T14:56:38.483Z,7.97
2018-03-30T14:59:09.885Z,7.83
2018-03-30T15:01:43.357Z,9.03
2018-03-30T15:04:22.774Z,8.47
2018-03-30T15:06:56.247Z,8.03
2018-03-30T15:09:26.374Z,7.60
2018-03-30T15:12:01.649Z,7.93
2018-03-30T15:14:29.960Z,11.50
2018-03-30T15:17:01.343Z,8.50
2018-03-30T15:19:49.615Z,8.20
2018-03-30T15:22:20.953Z,8.60
2018-03-30T15:24:57.071Z,8.73
2018-03-30T15:27:27.342Z,8.97
2018-03-30T15:29:57.816Z,8.27
2018-03-30T15:32:51.762Z,8.73
2018-03-30T15:35:19.479Z,8.83
2018-03-30T15:37:47.104Z,8.30
2018-03-30T15:40:17.411Z,9.23
2018-03-30T15:42:50.753Z,8.57
2018-03-30T15:45:21.886Z,10.33
2018-03-30T15:47:49.556Z,9.33
2018-03-30T15:50:17.228Z,9.93
2018-03-30T15:52:44.927Z,8.87
2018-03-30T15:55:12.550Z,8.80
2018-03-30T15:57:40.227Z,8.10
2018-03-30T16:00:07.864Z,9.27
2018-03-30T16:02:35.492Z,8.87
2018-03-30T16:05:03.243Z,8.87
2018-03-30T16:07:30.878Z,10.13
2018-03-30T16:10:13.105Z,9.27
2018-03-30T16:12:40.767Z,9.60
2018-03-30T16:15:08.404Z,9.87
2018-03-30T16:17:36.221Z,10.20
2018-03-30T16:20:03.304Z,9.73
2018-03-30T16:22:30.429Z,9.43
2018-03-30T16:24:57.523Z,8.93
2018-03-30T16:27:24.578Z,8.93
2018-03-30T16:29:51.631Z,9.37
2018-03-30T16:32:18.754Z,9.00
2018-03-30T16:34:45.813Z,9.03
2018-03-30T16:37:12.915Z,9.50
2018-03-30T16:39:40.249Z,9.53
2018-03-30T16:42:07.311Z,10.97
2018-03-30T16:44:34.382Z,13.57
2018-03-30T16:47:01.476Z,15.10
2018-03-30T16:49:28.526Z,18.23
2018-03-30T16:51:55.635Z,21.00
2018-03-30T16:54:22.679Z,24.57
2018-03-30T16:56:49.739Z,23.30
2018-03-30T16:59:16.815Z,20.53
2018-03-30T17:01:43.885Z,19.37
2018-03-30T17:04:11.026Z,21.60
2018-03-30T17:06:38.080Z,18.53
2018-03-30T17:09:05.190Z,19.47
2018-03-30T17:11:32.246Z,18.10
2018-03-30T17:13:59.298Z,17.90
2018-03-30T17:16:26.383Z,22.73
2018-03-30T17:18:53.442Z,25.33
2018-03-30T17:21:20.504Z,16.80
2018-03-30T17:23:47.564Z,19.07
2018-03-30T17:26:15.542Z,17.33
2018-03-30T17:28:42.627Z,17.80
2018-03-30T17:31:09.674Z,15.53
2018-03-30T17:33:36.799Z,16.70
2018-03-30T17:36:03.943Z,18.50
2018-03-30T17:38:30.991Z,20.83
2018-03-30T17:40:58.048Z,24.57
2018-03-30T17:43:25.151Z,21.60
2018-03-30T17:45:52.224Z,26.80
2018-03-30T17:48:19.283Z,23.80
2018-03-30T17:50:46.412Z,26.60
2018-03-30T17:53:13.491Z,26.83
2018-03-30T17:55:40.547Z,26.10
2018-03-30T17:58:07.643Z,27.67
2018-03-30T18:00:34.734Z,23.83
2018-03-30T18:03:01.790Z,23.90
2018-03-30T18:05:28.842Z,21.20
2018-03-30T18:07:55.894Z,21.67
2018-03-30T18:10:23.008Z,18.97
2018-03-30T18:12:50.186Z,19.03
2018-03-30T18:15:17.290Z,18.03
2018-03-30T18:17:44.496Z,20.57
2018-03-30T18:20:11.627Z,22.53
2018-03-30T18:22:39.703Z,25.17
2018-03-30T18:25:06.802Z,21.40
2018-03-30T18:27:33.892Z,25.73
2018-03-30T18:30:00.986Z,24.67
2018-03-30T18:32:28.039Z,22.50
2018-03-30T18:34:55.103Z,23.40
2018-03-30T18:37:22.276Z,23.20
2018-03-30T18:39:49.359Z,25.03
2018-03-30T18:42:16.435Z,23.93
2018-03-30T18:44:43.552Z,20.23
2018-03-30T18:47:10.707Z,20.83
2018-03-30T18:49:37.819Z,18.17
2018-03-30T18:52:04.925Z,18.43
2018-03-30T18:54:32.046Z,19.60
2018-03-30T18:56:59.191Z,19.67
2018-03-30T18:59:26.243Z,18.67
2018-03-30T19:01:53.299Z,18.20
2018-03-30T19:04:20.399Z,18.27
2018-03-30T19:06:47.528Z,17.17
2018-03-30T19:09:14.662Z,18.00
2018-03-30T19:11:41.753Z,19.07
2018-03-30T19:14:08.822Z,22.87
2018-03-30T19:16:35.939Z,20.53
2018-03-30T19:19:03.018Z,22.17
2018-03-30T19:21:30.074Z,22.50
2018-03-30T19:23:57.168Z,21.60
2018-03-30T19:26:24.294Z,25.93
2018-03-30T19:28:51.346Z,24.00
2018-03-30T19:31:18.443Z,21.90
2018-03-30T19:33:45.491Z,23.50
2018-03-30T19:36:12.547Z,22.83
2018-03-30T19:38:39.661Z,22.97
2018-03-30T19:41:06.798Z,23.80
2018-03-30T19:43:33.838Z,23.73
2018-03-30T19:46:00.959Z,22.87
2018-03-30T19:48:28.015Z,24.27
2018-03-30T19:50:55.061Z,24.67
2018-03-30T19:53:22.146Z,25.97
2018-03-30T19:55:49.203Z,26.40
2018-03-30T19:58:16.363Z,25.00
2018-03-30T20:00:43.452Z,23.53
2018-03-30T20:03:10.500Z,25.23
2018-03-30T20:05:37.584Z,22.70
2018-03-30T20:08:04.672Z,21.70
2018-03-30T20:10:31.726Z,21.73
2018-03-30T20:12:58.783Z,22.67
2018-03-30T20:15:25.946Z,22.27
2018-03-30T20:17:53.022Z,22.73
2018-03-30T20:20:20.109Z,23.03
2018-03-30T20:22:47.167Z,23.70
2018-03-30T20:25:14.238Z,21.77
2018-03-30T20:27:41.323Z,22.20
2018-03-30T20:30:08.418Z,21.67
2018-03-30T20:32:35.469Z,23.03
2018-03-30T20:35:02.532Z,20.57
2018-03-30T20:37:29.619Z,20.70
2018-03-30T20:39:56.674Z,21.23
2018-03-30T20:42:23.731Z,19.70
2018-03-30T20:44:50.850Z,19.27
2018-03-30T20:47:17.960Z,18.40
2018-03-30T20:49:45.027Z,19.67
2018-03-30T20:52:12.074Z,18.57
2018-03-30T20:54:39.133Z,18.67
2018-03-30T20:57:06.186Z,20.23
2018-03-30T20:59:33.276Z,19.57
2018-03-30T21:02:00.324Z,19.23
2018-03-30T21:04:27.386Z,18.43
2018-03-30T21:06:54.471Z,18.70
2018-03-30T21:09:21.542Z,18.83
2018-03-30T21:11:48.630Z,17.13
2018-03-30T21:14:15.680Z,18.00
2018-03-30T21:16:42.754Z,17.50
2018-03-30T21:19:09.843Z,19.40
2018-03-30T21:21:36.898Z,18.97
2018-03-30T21:24:03.946Z,17.87
2018-03-30T21:26:31.009Z,18.33
2018-03-30T21:28:58.101Z,19.00
2018-03-30T21:31:25.227Z,18.57
2018-03-30T21:33:52.300Z,18.53
2018-03-30T21:36:19.350Z,19.43
2018-03-30T21:38:46.411Z,18.20
2018-03-30T21:41:13.479Z,18.50
2018-03-30T21:43:40.571Z,17.93
2018-03-30T21:46:07.646Z,18.90
2018-03-30T21:48:34.714Z,18.57
2018-03-30T21:51:01.887Z,17.93
2018-03-30T21:53:28.944Z,17.57
2018-03-30T21:55:56.060Z,18.57
2018-03-30T21:58:23.142Z,17.37
2018-03-30T22:00:50.222Z,16.93
2018-03-30T22:03:17.268Z,17.20
2018-03-30T22:05:44.402Z,17.50
2018-03-30T22:08:11.442Z,18.10
2018-03-30T22:10:38.495Z,19.23
2018-03-30T22:13:05.607Z,18.43
2018-03-30T22:15:32.655Z,17.90
2018-03-30T22:17:59.701Z,18.67
2018-03-30T22:20:26.785Z,17.13
2018-03-30T22:22:53.831Z,18.13
2018-03-30T22:25:20.893Z,18.10
2018-03-30T22:27:47.959Z,17.63
2018-03-30T22:30:15.015Z,18.57
2018-03-30T22:32:42.106Z,18.20
2018-03-30T22:35:09.198Z,18.13
2018-03-30T22:37:36.242Z,17.87
2018-03-30T22:40:03.378Z,18.23
2018-03-30T22:42:30.438Z,18.20
2018-03-30T22:44:57.523Z,18.40
2018-03-30T22:47:24.622Z,18.97
2018-03-30T22:49:51.670Z,16.47
2018-03-30T22:52:18.722Z,17.23
2018-03-30T22:54:45.770Z,18.23
2018-03-30T22:57:12.830Z,18.80
2018-03-30T22:59:39.919Z,18.57
2018-03-30T23:02:06.970Z,18.20
2018-03-30T23:04:34.022Z,18.57
2018-03-30T23:07:01.107Z,17.80
2018-03-30T23:09:28.177Z,18.03
2018-03-30T23:11:55.234Z,19.53
2018-03-30T23:14:22.314Z,17.50
2018-03-30T23:16:49.358Z,17.83
2018-03-30T23:19:16.420Z,18.43
2018-03-30T23:21:43.474Z,19.30
2018-03-30T23:24:10.554Z,19.13
2018-03-30T23:26:37.602Z,18.20
2018-03-30T23:29:04.659Z,18.87
2018-03-30T23:31:31.818Z,19.07
2018-03-30T23:33:58.958Z,19.20
2018-03-30T23:36:26.039Z,19.33
2018-03-30T23:38:53.128Z,18.23
2018-03-30T23:41:20.182Z,19.67
2018-03-30T23:43:47.283Z,19.47
2018-03-30T23:46:14.346Z,18.90
2018-03-30T23:48:41.394Z,19.90
2018-03-30T23:51:08.526Z,19.17
2018-03-30T23:53:35.584Z,19.87
2018-03-30T23:56:02.662Z,18.90
2018-03-30T23:58:29.722Z,19.50
